createdAt,value
2019-02-17T00:01:42.250Z,41.98
2019-02-17T00:07:46.582Z,44.00
2019-02-17T00:13:50.820Z,43.95
2019-02-17T00:19:55.254Z,39.30
2019-02-17T00:25:59.581Z,42.00
2019-02-17T00:32:03.855Z,39.18
2019-02-17T00:38:08.175Z,42.08
2019-02-17T00:44:12.404Z,42.53
2019-02-17T00:50:16.656Z,39.77
2019-02-17T00:56:20.928Z,46.30
2019-02-17T01:02:25.260Z,41.53
2019-02-17T01:08:29.491Z,42.65
2019-02-17T01:14:33.773Z,35.43
2019-02-17T01:20:38.073Z,38.05
2019-02-17T01:26:42.313Z,40.53
2019-02-17T01:32:46.743Z,39.30
2019-02-17T01:38:51.031Z,39.80
2019-02-17T01:44:55.387Z,37.97
2019-02-17T01:50:59.610Z,43.67
2019-02-17T01:57:03.921Z,39.10
2019-02-17T02:03:08.163Z,38.90
2019-02-17T02:09:12.434Z,38.17
2019-02-17T02:15:16.642Z,37.43
2019-02-17T02:21:20.898Z,38.90
2019-02-17T02:27:25.187Z,38.93
2019-02-17T02:33:29.369Z,34.07
2019-02-17T02:39:33.569Z,35.13
2019-02-17T02:45:37.843Z,37.83
2019-02-17T02:51:42.052Z,35.77
2019-02-17T02:57:46.385Z,36.13
2019-02-17T03:03:50.664Z,39.60
2019-02-17T03:09:55.002Z,36.37
2019-02-17T03:15:59.214Z,37.77
2019-02-17T03:22:03.580Z,36.03
2019-02-17T03:28:07.826Z,38.33
2019-02-17T03:34:12.093Z,33.27
2019-02-17T03:40:16.295Z,37.67
2019-02-17T03:46:20.631Z,36.97
2019-02-17T03:52:24.843Z,35.07
2019-02-17T03:58:29.204Z,38.37
2019-02-17T04:04:33.499Z,38.03
2019-02-17T04:10:37.711Z,34.80
2019-02-17T04:16:41.897Z,40.27
2019-02-17T04:22:46.283Z,36.03
2019-02-17T04:28:50.583Z,35.47
2019-02-17T04:34:54.851Z,38.40
2019-02-17T04:40:59.064Z,33.10
2019-02-17T04:47:03.525Z,35.67
2019-02-17T04:53:07.705Z,33.80
2019-02-17T04:59:11.983Z,38.50
2019-02-17T05:05:16.266Z,39.60
2019-02-17T05:11:20.530Z,35.03
2019-02-17T05:17:24.823Z,36.57
2019-02-17T05:23:29.087Z,39.23
2019-02-17T05:29:33.396Z,40.90
2019-02-17T05:35:37.613Z,61.47
2019-02-17T05:41:41.839Z,146.23
2019-02-17T05:47:46.204Z,70.27
2019-02-17T05:53:50.402Z,49.57
2019-02-17T05:59:54.740Z,50.10
2019-02-17T06:05:59.018Z,78.07
2019-02-17T06:12:03.350Z,81.10
2019-02-17T06:18:07.557Z,92.57
2019-02-17T06:24:11.822Z,113.57
2019-02-17T06:30:16.056Z,182.10
2019-02-17T06:36:20.289Z,315.40
2019-02-17T06:42:24.568Z,68.17
2019-02-17T06:48:28.899Z,81.47
2019-02-17T06:54:33.225Z,87.77
2019-02-17T07:00:43.122Z,158.07
2019-02-17T07:06:52.679Z,124.40
2019-02-17T07:12:56.968Z,54.63
2019-02-17T07:19:01.256Z,33.57
2019-02-17T07:25:05.515Z,35.73
2019-02-17T07:31:09.815Z,35.07
2019-02-17T07:37:14.038Z,33.20
2019-02-17T07:43:18.281Z,32.83
2019-02-17T07:49:22.535Z,32.70
2019-02-17T07:55:26.717Z,31.30
2019-02-17T08:01:30.970Z,30.80
2019-02-17T08:07:35.290Z,30.30
2019-02-17T08:13:39.557Z,31.80
2019-02-17T08:19:43.799Z,32.60
2019-02-17T08:25:48.061Z,30.20
2019-02-17T08:31:55.966Z,26.37
2019-02-17T08:37:58.585Z,24.20
2019-02-17T08:44:02.810Z,36.23
2019-02-17T08:50:08.698Z,25.70
2019-02-17T08:56:13.002Z,29.10
2019-02-17T09:02:17.222Z,28.75
2019-02-17T09:08:21.518Z,29.67
2019-02-17T09:14:26.162Z,28.83
2019-02-17T09:20:30.358Z,24.27
2019-02-17T09:26:37.678Z,28.00
2019-02-17T09:32:41.964Z,24.70
2019-02-17T09:38:46.258Z,28.35
2019-02-17T09:44:50.538Z,19.70
2019-02-17T09:50:54.889Z,26.73
2019-02-17T09:56:59.085Z,25.23
2019-02-17T10:03:03.439Z,26.40
2019-02-17T10:09:07.772Z,25.65
2019-02-17T10:15:13.068Z,22.20
2019-02-17T10:21:17.292Z,23.27
2019-02-17T10:27:21.548Z,23.67
2019-02-17T10:33:25.835Z,27.22
2019-02-17T10:39:30.139Z,23.77
2019-02-17T10:45:34.463Z,22.13
2019-02-17T10:51:38.803Z,22.67
2019-02-17T10:57:43.295Z,18.30
2019-02-17T11:04:04.500Z,23.62
2019-02-17T11:10:10.783Z,19.55
2019-02-17T11:16:15.138Z,24.05
2019-02-17T11:22:23.100Z,19.10
2019-02-17T11:28:25.396Z,22.02
2019-02-17T11:34:29.712Z,18.35
2019-02-17T11:40:37.001Z,20.60
2019-02-17T11:46:41.326Z,17.87
2019-02-17T11:52:45.587Z,17.55
2019-02-17T11:58:50.012Z,20.00
2019-02-17T12:04:54.409Z,18.37
2019-02-17T12:10:58.646Z,16.12
2019-02-17T12:17:02.871Z,14.90
2019-02-17T12:23:11.453Z,14.50
2019-02-17T12:29:23.992Z,14.40
2019-02-17T12:35:28.422Z,14.73
2019-02-17T12:41:32.654Z,16.45
2019-02-17T12:47:36.908Z,16.62
2019-02-17T12:53:41.690Z,15.28
2019-02-17T12:59:45.943Z,13.78
2019-02-17T13:05:50.152Z,16.17
2019-02-17T13:11:54.380Z,13.78
2019-02-17T13:17:58.684Z,14.53
2019-02-17T13:24:03.131Z,14.28
2019-02-17T13:30:18.885Z,11.22
2019-02-17T13:36:23.490Z,18.62
2019-02-17T13:42:27.764Z,12.80
2019-02-17T13:48:32.129Z,14.20
2019-02-17T13:54:36.616Z,13.58
2019-02-17T14:00:40.886Z,14.50
2019-02-17T14:06:45.131Z,13.62
2019-02-17T14:12:49.443Z,12.95
2019-02-17T14:18:53.761Z,14.80
2019-02-17T14:24:58.277Z,17.55
2019-02-17T14:31:02.587Z,16.05
2019-02-17T14:37:06.951Z,13.98
2019-02-17T14:43:11.458Z,12.40
2019-02-17T14:49:15.761Z,14.38
2019-02-17T14:55:19.972Z,10.03
2019-02-17T15:01:24.195Z,10.58
2019-02-17T15:07:28.573Z,11.68
2019-02-17T15:13:32.868Z,10.82
2019-02-17T15:19:37.082Z,9.83
2019-02-17T15:25:41.297Z,9.93
2019-02-17T15:31:45.712Z,11.90
2019-02-17T15:37:50.012Z,11.75
2019-02-17T15:43:54.224Z,11.35
2019-02-17T15:49:58.431Z,10.03
2019-02-17T15:56:02.714Z,11.10
2019-02-17T16:02:07.032Z,10.18
2019-02-17T16:08:11.220Z,8.75
2019-02-17T16:14:15.500Z,10.63
2019-02-17T16:20:19.716Z,9.00
2019-02-17T16:26:23.974Z,9.15
2019-02-17T16:32:28.270Z,10.23
2019-02-17T16:38:32.501Z,11.18
2019-02-17T16:44:36.730Z,10.00
2019-02-17T16:50:41.200Z,10.23
2019-02-17T16:56:45.457Z,8.93
2019-02-17T17:02:49.793Z,14.47
2019-02-17T17:08:54.005Z,10.95
2019-02-17T17:14:58.220Z,10.15
2019-02-17T17:21:02.478Z,12.07
2019-02-17T17:27:06.722Z,14.90
2019-02-17T17:33:10.899Z,15.30
2019-02-17T17:39:15.288Z,18.05
2019-02-17T17:45:19.564Z,11.90
2019-02-17T17:51:23.877Z,10.40
2019-02-17T17:57:28.111Z,10.55
2019-02-17T18:03:32.451Z,12.05
2019-02-17T18:09:36.673Z,15.88
2019-02-17T18:15:40.977Z,13.45
2019-02-17T18:21:45.219Z,13.35
2019-02-17T18:27:49.472Z,15.58
2019-02-17T18:33:54.589Z,15.50
2019-02-17T18:39:59.021Z,16.23
2019-02-17T18:46:03.248Z,14.53
2019-02-17T18:52:07.613Z,15.18
2019-02-17T18:58:11.823Z,17.55
2019-02-17T19:04:16.217Z,16.45
2019-02-17T19:10:20.444Z,15.65
2019-02-17T19:16:24.671Z,15.53
2019-02-17T19:22:28.880Z,15.32
2019-02-17T19:28:33.228Z,18.98
2019-02-17T19:34:37.523Z,17.45
2019-02-17T19:40:41.914Z,20.65
2019-02-17T19:46:46.083Z,17.40
2019-02-17T19:52:50.398Z,17.05
2019-02-17T19:58:54.624Z,16.85
2019-02-17T20:05:12.111Z,15.85
2019-02-17T20:11:16.478Z,17.12
2019-02-17T20:17:20.764Z,17.30
2019-02-17T20:23:25.057Z,16.70
2019-02-17T20:29:29.326Z,19.50
2019-02-17T20:35:33.636Z,19.48
2019-02-17T20:41:37.920Z,20.37
2019-02-17T20:47:42.127Z,19.12
2019-02-17T20:53:46.320Z,19.30
2019-02-17T20:59:50.530Z,20.25
2019-02-17T21:05:55.520Z,20.65
2019-02-17T21:11:59.721Z,20.55
2019-02-17T21:18:03.940Z,20.30
2019-02-17T21:24:08.164Z,19.87
2019-02-17T21:30:12.571Z,21.02
2019-02-17T21:36:23.174Z,20.20
2019-02-17T21:42:23.505Z,20.25
2019-02-17T21:48:27.740Z,21.52
2019-02-17T21:54:32.037Z,19.98
2019-02-17T22:00:36.379Z,20.12
2019-02-17T22:06:40.559Z,21.50
2019-02-17T22:12:44.810Z,20.43
2019-02-17T22:18:49.013Z,22.75
2019-02-17T22:24:53.346Z,22.73
2019-02-17T22:30:57.543Z,20.80
2019-02-17T22:37:01.841Z,21.17
2019-02-17T22:43:06.134Z,23.10
2019-02-17T22:49:10.500Z,23.15
2019-02-17T22:55:14.912Z,25.60
2019-02-17T23:01:24.273Z,24.18
2019-02-17T23:07:28.650Z,23.52
2019-02-17T23:13:33.071Z,23.65
2019-02-17T23:19:37.361Z,22.40
2019-02-17T23:25:41.548Z,21.93
2019-02-17T23:31:45.799Z,22.00
2019-02-17T23:37:50.814Z,20.75
2019-02-17T23:43:55.012Z,21.27
2019-02-17T23:49:59.390Z,19.37
2019-02-17T23:56:03.579Z,20.05
